Time;durP1;ratioP1;P1;durP2;ratioP2;P2;SDS_P1;SDS_P2;PMS_P1;PMS_P2;Temp;Humidity;BMP_temperature;BMP_pressure;BME280_temperature;BME280_humidity;BME280_pressure;Samples;Min_cycle;Max_cycle;Signal;HPM_P1;HPM_P2
2023/05/01 00:01:23;;;;;;;5.47;4.75;;;;;;;9.05;91.33;96322.09;5075890;28;20074;-67
2023/05/01 00:03:51;;;;;;;6.00;4.35;;;;;;;9.11;91.39;96323.63;5075685;28;20083;-65
2023/05/01 00:06:19;;;;;;;4.80;4.30;;;;;;;9.15;90.97;96313.97;5075667;28;20045;-66
2023/05/01 00:08:46;;;;;;;5.25;4.13;;;;;;;9.13;90.45;96316.63;5075653;28;20560;-67
2023/05/01 00:11:14;;;;;;;6.15;4.30;;;;;;;9.13;90.13;96316.63;5075425;28;20053;-66
2023/05/01 00:13:42;;;;;;;3.85;3.55;;;;;;;9.12;89.33;96317.50;5075784;28;20051;-67
2023/05/01 00:16:11;;;;;;;6.55;3.95;;;;;;;9.15;88.69;96319.19;5075501;28;20155;-67
2023/05/01 00:18:39;;;;;;;7.80;4.03;;;;;;;9.19;88.13;96311.19;5075461;28;20122;-66
2023/05/01 00:21:07;;;;;;;4.28;3.28;;;;;;;9.19;87.76;96319.00;5075477;28;20048;-67
2023/05/01 00:23:35;;;;;;;4.13;3.72;;;;;;;9.20;87.62;96319.84;5075612;28;20080;-65
2023/05/01 00:26:02;;;;;;;5.05;3.65;;;;;;;9.18;86.93;96325.13;5075325;28;20055;-65
2023/05/01 00:28:29;;;;;;;6.65;3.80;;;;;;;9.12;86.78;96322.72;5075355;28;20044;-67
2023/05/01 00:30:57;;;;;;;4.35;3.50;;;;;;;9.06;86.11;96323.81;5075201;28;20086;-66
2023/05/01 00:33:26;;;;;;;4.35;3.53;;;;;;;9.06;86.31;96320.34;5075257;28;20071;-67
2023/05/01 00:35:54;;;;;;;7.00;3.75;;;;;;;9.00;86.02;96316.19;5075260;28;20045;-66
2023/05/01 00:38:22;;;;;;;4.85;3.97;;;;;;;8.90;86.61;96322.63;5075096;28;20123;-67
2023/05/01 00:40:50;;;;;;;5.93;3.35;;;;;;;8.84;85.94;96313.25;5075062;28;20079;-66
2023/05/01 00:43:17;;;;;;;4.82;3.53;;;;;;;8.71;85.42;96312.84;5074923;28;20091;-66
2023/05/01 00:45:45;;;;;;;4.88;3.45;;;;;;;8.64;85.52;96316.56;5075031;28;20048;-67
2023/05/01 00:48:12;;;;;;;4.85;3.40;;;;;;;8.51;86.61;96306.50;5074933;28;20045;-66
2023/05/01 00:50:42;;;;;;;4.38;3.42;;;;;;;8.48;86.80;96317.03;5074812;28;20048;-66
2023/05/01 00:53:09;;;;;;;6.68;3.42;;;;;;;8.47;87.10;96316.22;5074740;28;20087;-67
2023/05/01 00:55:37;;;;;;;5.18;3.30;;;;;;;8.39;86.79;96318.19;5074711;28;20506;-67
2023/05/01 00:58:05;;;;;;;3.63;3.33;;;;;;;8.38;86.44;96321.72;5074632;28;20041;-65
2023/05/01 01:00:32;;;;;;;3.95;3.30;;;;;;;8.33;86.20;96327.06;5074628;28;20410;-66
2023/05/01 01:03:00;;;;;;;3.53;3.22;;;;;;;8.32;86.02;96324.50;5074838;28;20060;-67
2023/05/01 01:05:31;;;;;;;3.33;3.03;;;;;;;8.28;85.03;96336.78;5073530;28;20048;-66
2023/05/01 01:08:11;;;;;;;2.88;2.60;;;;;;;8.24;84.57;96332.56;5074693;28;20045;-66
2023/05/01 01:10:47;;;;;;;3.37;3.00;;;;;;;8.20;84.20;96339.66;5074466;28;20050;-66
2023/05/01 01:13:20;;;;;;;4.93;2.65;;;;;;;8.12;83.89;96336.41;5074426;28;20045;-66
2023/05/01 01:15:54;;;;;;;7.38;3.13;;;;;;;8.08;83.97;96343.50;5074416;28;20517;-67
2023/05/01 01:18:27;;;;;;;4.65;3.05;;;;;;;8.01;84.08;96336.75;5074358;28;20045;-67
2023/05/01 01:20:59;;;;;;;3.28;2.45;;;;;;;8.03;84.07;96347.13;5074534;28;20052;-67
2023/05/01 01:23:54;;;;;;;2.88;2.58;;;;;;;7.88;83.94;96345.84;5074224;28;20071;-66
2023/05/01 01:26:33;;;;;;;2.70;2.50;;;;;;;7.79;83.71;96350.44;5074229;28;20041;-67
2023/05/01 01:29:22;;;;;;;2.97;2.67;;;;;;;7.72;83.29;96348.91;5074132;28;20132;-67
2023/05/01 01:32:04;;;;;;;3.05;2.78;;;;;;;7.59;84.48;96344.06;5073934;28;20383;-68
2023/05/01 01:34:36;;;;;;;3.67;3.05;;;;;;;7.59;84.58;96356.25;5074184;28;20076;-67
2023/05/01 01:37:12;;;;;;;3.72;3.08;;;;;;;7.57;84.66;96352.81;5074093;28;20045;-66
2023/05/01 01:39:54;;;;;;;4.55;3.00;;;;;;;7.56;84.69;96353.72;5073903;28;20053;-67
2023/05/01 01:42:27;;;;;;;3.88;2.90;;;;;;;7.58;84.90;96352.78;5073600;28;20131;-67
2023/05/01 01:44:56;;;;;;;3.05;2.42;;;;;;;7.55;84.98;96354.59;5074074;28;20106;-66
2023/05/01 01:47:28;;;;;;;3.25;2.70;;;;;;;7.54;84.60;96353.78;5073731;28;20076;-66
2023/05/01 01:50:00;;;;;;;4.72;2.85;;;;;;;7.59;84.17;96351.03;5073652;28;20053;-67
2023/05/01 01:52:29;;;;;;;7.15;2.80;;;;;;;7.53;83.36;96357.25;5073680;28;20556;-66
2023/05/01 01:55:00;;;;;;;2.70;2.45;;;;;;;7.49;82.99;96353.03;5073550;28;20049;-67
2023/05/01 01:57:30;;;;;;;2.65;2.45;;;;;;;7.37;82.76;96356.00;5073672;28;20559;-67
2023/05/01 01:59:58;;;;;;;2.75;2.55;;;;;;;7.36;82.79;96355.16;5073789;28;20098;-65
2023/05/01 02:02:28;;;;;;;4.90;3.00;;;;;;;7.35;82.49;96358.66;5073534;28;20540;-66
2023/05/01 02:04:58;;;;;;;3.58;2.03;;;;;;;7.29;82.30;96354.44;5073568;28;20048;-67
2023/05/01 02:07:27;;;;;;;6.13;2.78;;;;;;;7.28;82.28;96351.88;5073465;28;20075;-66
2023/05/01 02:09:56;;;;;;;4.78;2.58;;;;;;;7.26;82.02;96358.91;5073350;28;20041;-67
2023/05/01 02:12:25;;;;;;;2.90;2.40;;;;;;;7.18;82.05;96359.09;5073406;28;20055;-67
2023/05/01 02:14:54;;;;;;;2.90;2.67;;;;;;;7.16;82.04;96361.75;5073068;28;20054;-65
2023/05/01 02:17:22;;;;;;;3.28;2.50;;;;;;;7.08;81.95;96353.31;5073319;28;20593;-66
2023/05/01 02:19:53;;;;;;;3.08;2.30;;;;;;;7.06;81.94;96357.69;5073287;28;20086;-66
2023/05/01 02:22:24;;;;;;;3.08;2.65;;;;;;;7.06;82.21;96360.28;5073282;28;20094;-67
2023/05/01 02:24:52;;;;;;;;;;;;;;;7.02;81.79;96367.34;5073644;28;20052;-67
2023/05/01 02:27:23;;;;;;;4.38;2.85;;;;;;;6.89;82.27;96366.78;5073115;28;19920;-67
2023/05/01 02:29:52;;;;;;;3.80;2.80;;;;;;;6.87;82.40;96384.19;5073028;28;20044;-66
2023/05/01 02:32:19;;;;;;;3.40;3.10;;;;;;;6.89;82.78;96372.00;5073061;28;20514;-67
2023/05/01 02:34:47;;;;;;;3.53;2.97;;;;;;;6.91;82.48;96390.16;5073146;28;20048;-67
2023/05/01 02:37:14;;;;;;;9.70;3.03;;;;;;;6.91;82.68;96379.75;5073045;28;20052;-66
2023/05/01 02:39:43;;;;;;;3.58;3.28;;;;;;;6.79;83.67;96383.53;5073059;28;20044;-67
2023/05/01 02:42:11;;;;;;;3.63;3.30;;;;;;;6.85;84.05;96390.31;5072827;28;20049;-67
2023/05/01 02:44:44;;;;;;;3.30;2.85;;;;;;;6.90;83.73;96386.72;5073027;28;20052;-67
2023/05/01 02:47:16;;;;;;;4.07;3.38;;;;;;;6.90;83.79;96391.91;5073012;28;20055;-66
2023/05/01 02:49:46;;;;;;;4.68;3.10;;;;;;;6.89;84.31;96389.34;5072984;28;20041;-67
2023/05/01 02:52:14;;;;;;;;;;;;;;;6.89;84.77;96391.97;5073293;28;20131;-66
2023/05/01 02:54:44;;;;;;;3.22;2.92;;;;;;;6.81;84.50;96386.94;5072942;28;19921;-66
2023/05/01 02:57:12;;;;;;;6.35;2.85;;;;;;;6.83;84.54;96391.22;5073026;28;20048;-67
2023/05/01 02:59:40;;;;;;;3.72;3.35;;;;;;;6.81;84.79;96390.38;5072826;28;20409;-67
2023/05/01 03:02:07;;;;;;;5.65;3.78;;;;;;;6.78;84.49;96398.28;5072793;28;20053;-66
2023/05/01 03:04:34;;;;;;;4.72;3.47;;;;;;;6.83;84.78;96393.81;5073042;28;20044;-66
2023/05/01 03:07:03;;;;;;;5.20;3.35;;;;;;;6.85;84.50;96395.50;5072779;28;20094;-68
2023/05/01 03:09:31;;;;;;;4.25;2.88;;;;;;;6.83;84.68;96404.22;5072742;28;20044;-66
2023/05/01 03:11:59;;;;;;;3.47;3.17;;;;;;;6.83;84.65;96398.13;5072659;28;20485;-67
2023/05/01 03:14:27;;;;;;;4.15;3.20;;;;;;;6.82;84.42;96396.44;5072681;28;20048;-66
2023/05/01 03:16:54;;;;;;;4.47;3.70;;;;;;;6.76;84.70;96396.59;5072633;28;20449;-66
2023/05/01 03:19:21;;;;;;;5.38;3.38;;;;;;;6.69;85.27;96401.94;5072613;28;20049;-66
2023/05/01 03:21:48;;;;;;;7.38;3.85;;;;;;;6.65;86.38;96402.91;5072668;28;20076;-66
2023/05/01 03:24:16;;;;;;;4.97;3.45;;;;;;;6.73;86.89;96402.72;5072653;28;20123;-66
2023/05/01 03:26:43;;;;;;;7.20;3.75;;;;;;;6.79;86.53;96412.97;5072734;28;20044;-66
2023/05/01 03:29:12;;;;;;;4.13;3.72;;;;;;;6.87;86.11;96404.13;5076351;28;20127;-67
2023/05/01 03:31:39;;;;;;;4.10;3.47;;;;;;;6.93;85.78;96411.78;5076304;28;20102;-67
2023/05/01 03:34:07;;;;;;;7.63;3.20;;;;;;;6.99;85.01;96406.44;5076366;28;20102;-67
2023/05/01 03:36:34;;;;;;;4.07;3.65;;;;;;;7.03;84.91;96410.66;5076542;28;20395;-66
2023/05/01 03:39:01;;;;;;;8.40;4.30;;;;;;;7.08;84.33;96408.78;5076141;28;20044;-67
2023/05/01 03:41:28;;;;;;;5.60;3.60;;;;;;;7.13;84.69;96408.66;5076294;28;20045;-66
2023/05/01 03:43:55;;;;;;;4.20;3.47;;;;;;;7.18;85.32;96417.19;5075815;28;20048;-66
2023/05/01 03:46:24;;;;;;;4.95;3.78;;;;;;;7.14;85.60;96412.13;5076093;28;20052;-66
2023/05/01 03:48:52;;;;;;;4.03;3.63;;;;;;;7.15;86.98;96416.41;5075990;28;20102;-67
2023/05/01 03:51:19;;;;;;;6.03;4.18;;;;;;;7.32;87.74;96418.59;5075968;28;20052;-66
2023/05/01 03:53:46;;;;;;;4.28;3.67;;;;;;;7.78;87.57;96420.78;5076025;28;20052;-66
2023/05/01 03:56:13;;;;;;;5.75;3.88;;;;;;;8.44;86.85;96417.97;5075936;28;20151;-67
2023/05/01 03:58:40;;;;;;;4.10;3.50;;;;;;;9.09;84.26;96422.00;5075901;28;20049;-67
2023/05/01 04:01:07;;;;;;;4.15;3.65;;;;;;;9.76;80.01;96426.66;5075836;28;20094;-66
2023/05/01 04:03:36;;;;;;;3.80;3.40;;;;;;;10.36;76.07;96427.00;5075753;28;20045;-67
2023/05/01 04:06:03;;;;;;;3.63;2.75;;;;;;;10.89;73.55;96423.25;5075773;28;20041;-67
2023/05/01 04:08:31;;;;;;;4.90;2.50;;;;;;;11.25;71.52;96433.94;5075601;28;20091;-67
2023/05/01 04:10:58;;;;;;;3.33;2.50;;;;;;;11.66;70.46;96432.22;5075551;28;20098;-66
2023/05/01 04:13:25;;;;;;;3.63;2.42;;;;;;;12.12;68.74;96436.34;5075578;28;20136;-67
2023/05/01 04:15:58;;;;;;;3.22;2.20;;;;;;;12.51;66.75;96439.81;5075556;28;20048;-66
2023/05/01 04:18:25;;;;;;;4.45;2.53;;;;;;;12.94;66.08;96434.25;5075652;28;20125;-67
2023/05/01 04:20:54;;;;;;;3.35;2.13;;;;;;;13.39;65.28;96437.28;5075507;28;20087;-67
2023/05/01 04:23:21;;;;;;;4.53;1.92;;;;;;;13.81;64.20;96442.19;5075559;28;20080;-67
2023/05/01 04:25:48;;;;;;;4.18;1.95;;;;;;;14.08;60.23;96443.41;5075425;28;20121;-67
2023/05/01 04:28:15;;;;;;;5.65;2.00;;;;;;;14.30;60.31;96450.16;5075290;28;20048;-67
2023/05/01 04:30:42;;;;;;;3.20;2.15;;;;;;;14.49;60.49;96448.22;5075144;28;20135;-67
2023/05/01 04:33:10;;;;;;;3.22;2.20;;;;;;;14.78;60.33;96460.72;5075299;28;20052;-67
2023/05/01 04:35:38;;;;;;;3.35;1.85;;;;;;;15.13;59.05;96460.47;5075358;28;20060;-68
2023/05/01 04:38:07;;;;;;;3.17;2.15;;;;;;;15.46;58.33;96465.66;5074837;28;20045;-67
2023/05/01 04:40:34;;;;;;;5.57;2.47;;;;;;;15.70;57.88;96468.63;5075118;28;20148;-67
2023/05/01 04:43:01;;;;;;;9.15;2.25;;;;;;;15.97;58.04;96470.56;5074794;28;20045;-68
2023/05/01 04:45:29;;;;;;;3.78;2.40;;;;;;;16.26;57.46;96469.72;5075010;28;20106;-68
2023/05/01 04:47:57;;;;;;;2.47;2.28;;;;;;;16.57;56.15;96466.91;5074972;28;20055;-68
2023/05/01 04:50:24;;;;;;;3.13;2.40;;;;;;;16.87;56.18;96464.13;5074942;28;20087;-68
2023/05/01 04:52:52;;;;;;;2.75;1.80;;;;;;;17.15;55.31;96464.97;5074958;28;20048;-68
2023/05/01 04:55:20;;;;;;;3.30;2.30;;;;;;;17.48;54.45;96460.19;5074998;28;20052;-68
2023/05/01 04:57:48;;;;;;;2.45;2.20;;;;;;;17.67;54.53;96458.94;5074795;28;20106;-68
2023/05/01 05:00:17;;;;;;;4.43;2.15;;;;;;;17.86;53.64;96465.59;5074709;28;20131;-68
2023/05/01 05:02:45;;;;;;;2.83;2.00;;;;;;;18.12;51.94;96469.13;5074829;28;20041;-68
2023/05/01 05:05:14;;;;;;;3.03;1.90;;;;;;;18.24;51.53;96470.06;5074666;28;20128;-68
2023/05/01 05:07:41;;;;;;;2.08;1.98;;;;;;;18.49;51.69;96472.78;5074620;28;20044;-68
2023/05/01 05:10:09;;;;;;;2.40;2.10;;;;;;;18.79;52.06;96475.00;5074515;28;20125;-68
2023/05/01 05:12:37;;;;;;;2.65;2.00;;;;;;;19.00;53.04;96477.06;5074335;28;20106;-68
2023/05/01 05:15:05;;;;;;;3.95;1.85;;;;;;;19.36;53.12;96477.13;5074445;28;20072;-68
2023/05/01 05:17:32;;;;;;;1.92;1.67;;;;;;;19.68;53.93;96487.09;5074357;28;20106;-68
2023/05/01 05:20:00;;;;;;;2.40;2.20;;;;;;;20.08;54.27;96479.75;5074283;28;20044;-68
2023/05/01 05:22:27;;;;;;;3.97;1.98;;;;;;;20.43;52.54;96484.06;5074256;28;20048;-68
2023/05/01 05:24:55;;;;;;;3.95;2.00;;;;;;;20.72;51.79;96482.72;5074356;28;20117;-69
2023/05/01 05:27:22;;;;;;;2.33;2.13;;;;;;;20.83;50.33;96489.84;5074082;28;20052;-69
2023/05/01 05:29:50;;;;;;;3.80;2.33;;;;;;;20.81;49.46;96503.25;5074389;28;20044;-68
2023/05/01 05:32:17;;;;;;;5.40;2.10;;;;;;;20.58;49.40;96499.75;5074124;28;20469;-68
2023/05/01 05:34:46;;;;;;;3.05;2.10;;;;;;;19.90;47.59;96498.72;5073964;28;20139;-67
2023/05/01 05:37:14;;;;;;;3.50;2.25;;;;;;;19.06;48.96;96504.91;5073932;28;20048;-67
2023/05/01 05:39:41;;;;;;;2.10;1.90;;;;;;;18.27;51.44;96501.59;5073967;28;20051;-67
2023/05/01 05:42:08;;;;;;;3.92;2.58;;;;;;;17.73;52.92;96500.81;5073968;28;20135;-67
2023/05/01 05:44:36;;;;;;;3.08;2.35;;;;;;;17.47;55.30;96508.72;5073848;28;20045;-67
2023/05/01 05:47:05;;;;;;;2.63;2.15;;;;;;;17.38;55.44;96510.19;5073778;28;20044;-67
2023/05/01 05:49:32;;;;;;;3.00;2.10;;;;;;;17.61;55.20;96512.25;5073543;28;20077;-67
2023/05/01 05:51:59;;;;;;;3.33;2.28;;;;;;;17.91;59.00;96516.44;5073280;28;20052;-67
2023/05/01 05:54:26;;;;;;;4.10;2.35;;;;;;;18.06;56.76;96515.34;5073658;28;20098;-68
2023/05/01 05:56:54;;;;;;;2.80;2.20;;;;;;;18.26;54.57;96513.16;5073688;28;20122;-68
2023/05/01 05:59:21;;;;;;;3.28;2.00;;;;;;;18.63;54.58;96524.78;5073621;28;20052;-68
2023/05/01 06:01:48;;;;;;;2.95;2.20;;;;;;;18.66;52.86;96528.03;5073582;28;20056;-68
2023/05/01 06:04:17;;;;;;;2.45;2.00;;;;;;;18.62;50.19;96526.56;5073609;28;20484;-68
2023/05/01 06:06:45;;;;;;;3.95;2.10;;;;;;;18.38;50.39;96526.47;5073425;28;20506;-67
2023/05/01 06:09:13;;;;;;;4.28;2.05;;;;;;;18.24;49.48;96527.47;5073359;28;20045;-67
2023/05/01 06:11:42;;;;;;;3.13;2.33;;;;;;;18.21;49.19;96527.69;5073314;28;20052;-69
2023/05/01 06:14:10;;;;;;;6.82;2.25;;;;;;;18.56;49.69;96530.50;5073330;28;20045;-68
2023/05/01 06:16:37;;;;;;;2.13;1.70;;;;;;;18.68;46.13;96536.72;5073403;28;20057;-68
2023/05/01 06:19:06;;;;;;;2.50;2.00;;;;;;;18.83;47.40;96539.22;5073325;28;20071;-68
2023/05/01 06:21:37;;;;;;;5.05;2.10;;;;;;;19.18;45.32;96546.44;5072695;28;20088;-68
2023/05/01 06:24:05;;;;;;;4.03;2.30;;;;;;;19.57;46.18;96540.97;5073359;28;20052;-68
2023/05/01 06:26:32;;;;;;;5.50;2.33;;;;;;;19.49;43.22;96543.34;5073227;28;20106;-68
2023/05/01 06:29:01;;;;;;;3.42;2.10;;;;;;;19.54;44.47;96549.16;5073532;28;20044;-68
2023/05/01 06:31:29;;;;;;;9.77;2.45;;;;;;;19.75;43.97;96547.66;5073120;28;20052;-68
2023/05/01 06:33:56;;;;;;;2.85;2.15;;;;;;;19.81;42.83;96549.88;5073025;28;20049;-68
2023/05/01 06:36:24;;;;;;;2.75;2.22;;;;;;;20.05;43.31;96549.00;5073089;28;20044;-68
2023/05/01 06:38:52;;;;;;;6.10;2.65;;;;;;;20.13;43.54;96559.00;5073043;28;20102;-68
2023/05/01 06:41:20;;;;;;;3.00;2.00;;;;;;;20.28;44.33;96562.28;5073036;28;20045;-68
2023/05/01 06:43:48;;;;;;;4.07;2.10;;;;;;;20.36;44.10;96565.22;5072835;28;20072;-68
2023/05/01 06:46:15;;;;;;;4.65;2.28;;;;;;;20.53;47.18;96565.72;5072957;28;20045;-68
2023/05/01 06:48:45;;;;;;;2.45;1.90;;;;;;;20.55;42.49;96569.06;5072984;28;20080;-68
2023/05/01 06:51:13;;;;;;;2.50;2.17;;;;;;;20.10;42.51;96589.28;5073027;28;20445;-68
2023/05/01 06:53:41;;;;;;;3.22;1.90;;;;;;;20.13;44.04;96582.91;5073001;28;20052;-68
2023/05/01 06:56:09;;;;;;;2.47;1.83;;;;;;;20.14;45.72;96580.13;5073029;28;20045;-68
2023/05/01 06:58:37;;;;;;;2.40;2.00;;;;;;;20.28;43.18;96586.19;5073032;28;20072;-68
2023/05/01 07:01:05;;;;;;;5.20;2.30;;;;;;;20.66;44.21;96585.03;5073150;28;20044;-68
2023/05/01 07:03:32;;;;;;;2.55;2.00;;;;;;;20.71;42.05;96588.16;5076940;28;20045;-68
2023/05/01 07:05:59;;;;;;;2.83;1.90;;;;;;;20.28;40.89;96589.69;5076940;28;20049;-68
2023/05/01 07:08:27;;;;;;;3.22;2.03;;;;;;;20.45;40.36;96588.41;5076980;28;20044;-68
2023/05/01 07:10:54;;;;;;;4.82;2.28;;;;;;;20.64;41.43;96597.59;5076845;28;20068;-68
2023/05/01 07:13:25;;;;;;;3.75;2.28;;;;;;;20.74;42.83;96594.22;5076861;28;20049;-68
2023/05/01 07:15:52;;;;;;;;;;;;;;;21.00;43.36;96607.25;5077138;28;20094;-68
2023/05/01 07:18:19;;;;;;;6.35;2.45;;;;;;;20.84;41.00;96598.66;5076771;28;19921;-67
2023/05/01 07:20:48;;;;;;;4.88;3.03;;;;;;;20.56;41.54;96614.13;5076568;28;20044;-67
2023/05/01 07:23:16;;;;;;;7.22;2.28;;;;;;;19.77;41.57;96620.03;5076523;28;20045;-67
2023/05/01 07:25:44;;;;;;;2.72;2.33;;;;;;;19.26;42.98;96612.19;5076551;28;20052;-67
2023/05/01 07:28:12;;;;;;;5.85;2.40;;;;;;;19.29;43.64;96611.97;5076488;28;20124;-66
2023/05/01 07:30:41;;;;;;;7.75;2.33;;;;;;;19.52;47.79;96614.75;5076487;28;20044;-67
2023/05/01 07:33:10;;;;;;;5.35;2.70;;;;;;;19.94;48.23;96619.63;5076281;28;20053;-67
2023/05/01 07:35:37;;;;;;;8.98;2.92;;;;;;;20.48;48.22;96607.72;5076203;28;20044;-67
2023/05/01 07:38:04;;;;;;;5.80;2.60;;;;;;;20.69;48.94;96607.84;5076258;28;20080;-67
2023/05/01 07:40:33;;;;;;;5.43;2.33;;;;;;;21.19;47.76;96612.81;5076201;28;20107;-67
2023/05/01 07:43:02;;;;;;;5.72;2.83;;;;;;;21.44;44.97;96618.81;5076023;28;20052;-67
2023/05/01 07:45:30;;;;;;;5.95;2.67;;;;;;;21.30;43.83;96614.59;5076239;28;20052;-67
2023/05/01 07:48:04;;;;;;;2.95;2.60;;;;;;;21.15;42.73;96618.50;5076162;28;20044;-68
2023/05/01 07:50:32;;;;;;;9.02;3.13;;;;;;;21.27;44.23;96624.63;5075855;28;20475;-68
2023/05/01 07:52:59;;;;;;;4.95;2.65;;;;;;;20.99;44.61;96624.19;5075910;28;20064;-68
2023/05/01 07:55:27;;;;;;;4.85;2.60;;;;;;;20.99;43.17;96625.03;5075966;28;20095;-67
2023/05/01 07:57:54;;;;;;;3.45;2.80;;;;;;;21.17;44.36;96632.53;5075999;28;20045;-68
2023/05/01 08:00:22;;;;;;;4.63;3.30;;;;;;;21.01;43.82;96627.59;5075813;28;20048;-68
2023/05/01 08:02:51;;;;;;;3.78;3.17;;;;;;;20.91;45.61;96622.13;5075639;28;20060;-66
2023/05/01 08:05:20;;;;;;;4.25;2.53;;;;;;;21.06;43.31;96620.06;5075711;28;20045;-66
2023/05/01 08:07:48;;;;;;;3.55;2.83;;;;;;;20.89;44.93;96619.56;5075711;28;20078;-66
2023/05/01 08:10:15;;;;;;;4.70;3.30;;;;;;;20.63;47.31;96622.47;5075726;28;20052;-66
2023/05/01 08:12:43;;;;;;;7.85;3.50;;;;;;;20.30;46.97;96632.94;5075223;28;20063;-66
2023/05/01 08:15:10;;;;;;;6.43;3.17;;;;;;;19.25;48.25;96641.47;5075267;28;20047;-67
2023/05/01 08:17:37;;;;;;;4.55;2.58;;;;;;;19.12;50.75;96634.41;5075526;28;20076;-66
2023/05/01 08:20:06;;;;;;;6.95;3.10;;;;;;;19.67;47.57;96644.63;5075464;28;20127;-66
2023/05/01 08:22:34;;;;;;;4.88;2.70;;;;;;;20.18;47.76;96650.63;5075410;28;20047;-66
2023/05/01 08:25:03;;;;;;;2.60;2.35;;;;;;;20.32;46.05;96654.88;5075620;28;20484;-66
2023/05/01 08:27:30;;;;;;;3.80;2.38;;;;;;;20.41;48.21;96658.66;5075472;28;20082;-65
2023/05/01 08:29:57;;;;;;;5.60;2.58;;;;;;;20.25;44.46;96656.31;5075452;28;20070;-65
2023/05/01 08:32:25;;;;;;;2.83;2.45;;;;;;;20.32;45.74;96664.69;5075282;28;20052;-64
2023/05/01 08:34:52;;;;;;;4.53;2.83;;;;;;;19.97;46.41;96662.81;5075313;28;20052;-66
2023/05/01 08:37:20;;;;;;;6.60;3.20;;;;;;;19.54;46.38;96660.56;5075334;28;20054;-65
2023/05/01 08:39:49;;;;;;;4.05;3.28;;;;;;;18.89;47.80;96663.34;5075144;28;20048;-66
2023/05/01 08:42:17;;;;;;;4.50;2.85;;;;;;;18.71;49.08;96659.31;5074923;28;20048;-65
2023/05/01 08:44:46;;;;;;;5.80;3.17;;;;;;;18.47;49.00;96668.00;5075014;28;20102;-65
2023/05/01 08:47:17;;;;;;;5.00;2.83;;;;;;;17.99;48.72;96682.59;5075342;28;20482;-67
2023/05/01 08:49:45;;;;;;;4.60;3.20;;;;;;;17.68;52.86;96680.16;5075190;28;20160;-65
2023/05/01 08:52:13;;;;;;;3.20;2.90;;;;;;;17.32;52.96;96673.63;5074748;28;20545;-64
2023/05/01 08:54:44;;;;;;;6.43;2.88;;;;;;;17.22;55.57;96683.94;5074830;28;20131;-66
2023/05/01 08:57:12;;;;;;;11.05;2.75;;;;;;;17.35;55.97;96676.94;5074736;28;20077;-68
2023/05/01 08:59:41;;;;;;;5.80;3.17;;;;;;;17.45;57.21;96679.84;5074772;28;20088;-66
2023/05/01 09:02:09;;;;;;;7.10;2.90;;;;;;;17.36;56.04;96677.78;5075103;28;20078;-64
2023/05/01 09:04:39;;;;;;;3.88;2.63;;;;;;;17.17;51.75;96681.59;5074897;28;20568;-64
2023/05/01 09:07:08;;;;;;;5.40;2.53;;;;;;;17.11;52.93;96676.69;5074517;28;20135;-64
2023/05/01 09:09:36;;;;;;;2.45;2.20;;;;;;;17.21;55.50;96675.16;5073928;28;20087;-65
2023/05/01 09:12:16;;;;;;;3.88;2.20;;;;;;;17.21;54.78;96687.50;5073673;28;20094;-66
2023/05/01 09:14:44;;;;;;;4.20;2.78;;;;;;;17.10;55.16;96690.84;5072731;28;20052;-63
2023/05/01 09:17:12;;;;;;;4.50;2.47;;;;;;;16.98;51.57;96690.63;5073254;28;20040;-65
2023/05/01 09:19:40;;;;;;;4.22;2.70;;;;;;;16.95;51.96;96688.19;5073949;28;20044;-65
2023/05/01 09:22:07;;;;;;;3.58;2.28;;;;;;;16.99;54.44;96696.75;5074469;28;20045;-64
2023/05/01 09:24:35;;;;;;;6.05;2.55;;;;;;;17.06;53.96;96692.78;5073670;28;20055;-55
2023/05/01 09:27:03;;;;;;;5.13;2.83;;;;;;;17.10;55.84;96690.84;5073742;28;20048;-57
2023/05/01 09:29:42;;;;;;;5.20;2.70;;;;;;;16.96;52.09;96681.94;5073321;28;20127;-56
2023/05/01 09:32:19;;;;;;;17.90;2.72;;;;;;;16.87;52.29;96677.22;5074070;28;20496;-58
2023/05/01 09:34:49;;;;;;;7.93;2.80;;;;;;;16.86;53.09;96679.00;5074039;28;20476;-54
2023/05/01 09:37:29;;;;;;;4.73;2.80;;;;;;;16.72;51.10;96697.50;5073847;28;20107;-54
2023/05/01 09:40:08;;;;;;;4.43;2.80;;;;;;;16.52;54.73;96697.75;5073370;28;20293;-56
2023/05/01 09:42:38;;;;;;;5.20;2.53;;;;;;;16.50;53.18;96694.34;5073483;28;20047;-53
2023/05/01 09:45:13;;;;;;;4.67;3.20;;;;;;;16.32;51.17;96708.66;5073810;28;20045;-53
2023/05/01 09:47:43;;;;;;;3.45;2.25;;;;;;;16.33;53.67;96712.97;5073748;28;20498;-55
2023/05/01 09:50:12;;;;;;;7.57;2.90;;;;;;;16.25;55.15;96711.66;5073368;28;20455;-58
2023/05/01 09:52:39;;;;;;;5.68;2.55;;;;;;;16.24;55.54;96717.88;5073642;28;20094;-55
2023/05/01 09:55:14;;;;;;;5.68;3.10;;;;;;;16.20;57.96;96720.78;5071875;28;20045;-54
2023/05/01 09:57:44;;;;;;;3.58;2.63;;;;;;;16.12;55.82;96729.13;5073003;28;20052;-52
2023/05/01 10:00:19;;;;;;;6.72;3.15;;;;;;;15.96;56.48;96727.38;5073427;28;20056;-57
2023/05/01 10:02:49;;;;;;;6.30;2.80;;;;;;;15.92;56.80;96739.00;5073514;28;20045;-53
2023/05/01 10:05:16;;;;;;;7.20;3.13;;;;;;;15.84;60.38;96746.50;5073076;28;20052;-59
2023/05/01 10:07:56;;;;;;;6.32;3.15;;;;;;;15.51;61.21;96745.66;5073247;28;20044;-58
2023/05/01 10:10:24;;;;;;;7.55;5.22;;;;;;;15.36;63.89;96747.34;5072807;28;20128;-55
2023/05/01 10:12:51;;;;;;;7.40;5.03;;;;;;;15.25;63.95;96748.78;5073382;28;20063;-58
2023/05/01 10:15:21;;;;;;;10.70;7.35;;;;;;;15.32;64.30;96740.53;5072627;28;20044;-67
2023/05/01 10:17:52;;;;;;;8.02;6.60;;;;;;;15.30;65.61;96745.91;5072799;28;20147;-67
2023/05/01 10:20:19;;;;;;;;;;;;;;;15.46;68.15;96738.00;5072428;28;20474;-67
2023/05/01 10:22:47;;;;;;;7.20;5.05;;;;;;;15.54;64.54;96735.78;5072876;28;19920;-67
2023/05/01 10:25:16;;;;;;;10.48;4.20;;;;;;;15.74;69.18;96731.19;5073235;28;20433;-68
2023/05/01 10:27:43;;;;;;;6.03;3.53;;;;;;;15.88;68.27;96733.06;5072998;28;20048;-68
2023/05/01 10:30:11;;;;;;;5.13;2.55;;;;;;;15.98;66.37;96736.03;5073267;28;20041;-67
2023/05/01 10:32:43;;;;;;;3.38;2.78;;;;;;;16.01;68.88;96735.88;5073004;28;20127;-67
2023/05/01 10:35:14;;;;;;;4.82;2.65;;;;;;;16.05;69.25;96726.00;5073017;28;20137;-67
2023/05/01 10:37:48;;;;;;;4.28;3.13;;;;;;;16.27;69.99;96720.34;5072840;28;20501;-67
2023/05/01 10:40:50;;;;;;;1.65;1.52;;;;;;;16.54;67.06;96711.72;5073058;28;20490;-68
2023/05/01 10:43:24;;;;;;;11.30;6.65;;;;;;;16.82;69.08;96698.63;5072872;28;20565;-67
2023/05/01 10:45:54;;;;;;;4.50;3.78;;;;;;;17.06;69.49;96700.72;5073008;28;20106;-67
2023/05/01 10:48:58;;;;;;;3.30;2.63;;;;;;;17.22;62.30;96699.81;5072988;28;20052;-67
2023/05/01 10:51:27;;;;;;;2.42;1.55;;;;;;;17.34;60.74;96700.81;5073109;28;20620;-68
2023/05/01 10:54:23;;;;;;;1.38;1.20;;;;;;;17.55;55.16;96703.91;5073120;28;20056;-68
2023/05/01 10:56:51;;;;;;;2.47;1.40;;;;;;;17.80;54.74;96700.53;5073167;28;20403;-67
2023/05/01 10:59:19;;;;;;;1.30;1.20;;;;;;;18.01;51.39;96700.09;5072975;28;20114;-67
2023/05/01 11:01:50;;;;;;;1.38;1.27;;;;;;;18.36;48.97;96698.69;5072820;28;20055;-68
2023/05/01 11:04:35;;;;;;;;;;;;;;;18.60;49.46;96697.97;5073261;28;20049;-67
2023/05/01 11:07:18;;;;;;;1.80;1.60;;;;;;;18.91;51.31;96701.16;5072867;28;20340;-68
2023/05/01 11:09:46;;;;;;;2.53;1.95;;;;;;;19.04;50.87;96695.00;5072750;28;20490;-67
2023/05/01 11:12:15;;;;;;;2.55;2.00;;;;;;;19.25;49.00;96698.00;5072778;28;20048;-67
2023/05/01 11:15:06;;;;;;;1.80;1.70;;;;;;;19.55;48.83;96699.41;5072613;28;20048;-68
2023/05/01 11:17:48;;;;;;;7.47;1.77;;;;;;;19.95;46.10;96702.75;5072740;28;20051;-67
2023/05/01 11:20:49;;;;;;;4.40;1.90;;;;;;;20.21;43.74;96700.00;5072595;28;20391;-67
2023/05/01 11:23:26;;;;;;;5.32;2.42;;;;;;;20.36;42.79;96695.34;5072704;28;20552;-67
2023/05/01 11:26:06;;;;;;;2.53;1.98;;;;;;;20.59;44.52;96692.75;5072842;28;20052;-67
2023/05/01 11:28:36;;;;;;;3.78;2.40;;;;;;;20.68;44.45;96688.53;5072662;28;20040;-66
2023/05/01 11:31:04;;;;;;;5.90;2.13;;;;;;;20.87;40.32;96689.75;5072836;28;20045;-67
2023/05/01 11:33:34;;;;;;;5.50;2.28;;;;;;;21.10;41.27;96681.84;5072423;28;20052;-67
2023/05/01 11:36:02;;;;;;;5.07;2.60;;;;;;;21.21;39.53;96688.00;5072185;28;20063;-67
2023/05/01 11:38:31;;;;;;;3.55;2.30;;;;;;;20.98;40.03;96687.13;5072396;28;20044;-66
2023/05/01 11:41:09;;;;;;;3.20;2.47;;;;;;;20.54;40.99;96686.94;5072462;28;20502;-67
2023/05/01 11:43:50;;;;;;;5.53;2.58;;;;;;;20.35;41.39;96685.69;5071643;28;20133;-67
2023/05/01 11:46:26;;;;;;;6.53;2.53;;;;;;;20.25;40.99;96680.22;5072270;28;20471;-67
2023/05/01 11:48:53;;;;;;;4.85;2.38;;;;;;;20.08;40.50;96682.31;5073781;28;20045;-66